Flight Track Log - Related Links

Times and Time Zones

All times are in EDT time to prevent confusion due to time zone crossing. See the FIN666 flight status page for this flight to view local times or setup timezone preferences in your user account.


Time Position Orientation Groundspeed Altitude Reporting Facility
EDT Latitude Longitude Course Direction KTS MPH feet Rate Location/Type
Tue 07:28:00 AM 55.8420 13.1192 49° Northeast  Level Estimated
Tue 07:29:00 AM 55.9164 13.2747 50° Northeast  Level Estimated
Tue 07:30:00 AM 55.9905 13.4309 50° Northeast  Level Estimated
Tue 07:31:00 AM 56.0586 13.5753 50° Northeast  Level Estimated
Tue 07:32:00 AM 56.1265 13.7202 50° Northeast  Level Estimated
Tue 07:33:00 AM 56.1943 13.8656 50° Northeast  Level Estimated
Tue 07:34:00 AM 56.2618 14.0115 50° Northeast  Level Estimated
Tue 07:35:00 AM 56.3293 14.1579 50° Northeast  Level Estimated
Tue 07:36:00 AM 56.3965 14.3049 50° Northeast  Level Estimated
Tue 07:37:00 AM 56.4636 14.4524 51° Northeast  Level Estimated
Tue 07:38:00 AM 56.5304 14.6004 51° Northeast  Level Estimated
Tue 07:39:00 AM 56.5972 14.7489 51° Northeast  Level Estimated
Tue 07:40:00 AM 56.6637 14.8979 51° Northeast  Level Estimated
Tue 07:41:00 AM 56.7301 15.0475 51° Northeast  Level Estimated
Tue 07:42:00 AM 56.7962 15.1975 51° Northeast  Level Estimated
Tue 07:43:00 AM 56.8622 15.3482 51° Northeast  Level Estimated
Tue 07:44:00 AM 56.9281 15.4993 51° Northeast  Level Estimated
Tue 07:45:00 AM 56.9937 15.6510 52° Northeast  Level Estimated
Tue 07:46:00 AM 57.0591 15.8032 52° Northeast  Level Estimated
Tue 07:47:00 AM 57.1244 15.9560 52° Northeast  Level Estimated
Tue 07:48:00 AM 57.1895 16.1093 52° Northeast  Level Estimated
Tue 07:49:00 AM 57.2544 16.2631 52° Northeast  Level Estimated
Tue 07:50:00 AM 57.3236 16.4284 52° Northeast  Level Estimated
Tue 07:51:00 AM 57.3926 16.5943 52° Northeast  Level Estimated
Tue 07:52:00 AM 57.4614 16.7608 52° Northeast  Level Estimated
Tue 07:53:00 AM 57.5300 16.9280 53° Northeast  Level Estimated
Tue 07:54:00 AM 57.5984 17.0957 53° Northeast  Level Estimated
Tue 07:55:00 AM 57.6666 17.2642 53° Northeast  Level Estimated
Tue 07:56:00 AM 57.7345 17.4332 53° Northeast  Level Estimated
Tue 07:57:00 AM 57.8022 17.6029 53° Northeast  Level Estimated
Tue 07:58:00 AM 57.8697 17.7732 53° Northeast  Level Estimated
Tue 07:59:00 AM 57.9369 17.9441 53° Northeast  Level Estimated
Tue 08:00:00 AM 58.0039 18.1157 54° Northeast  Level Estimated
Tue 08:01:00 AM 58.0707 18.2879 54° Northeast  Level Estimated
Tue 08:02:00 AM 58.1372 18.4608 54° Northeast  Level Estimated
Tue 08:03:00 AM 58.2035 18.6343 54° Northeast  Level Estimated
Tue 08:04:00 AM 58.2696 18.8085 54° Northeast  Level Estimated
Tue 08:05:00 AM 58.3354 18.9833 54° Northeast  Level Estimated
Tue 08:06:00 AM 58.4011 19.1588 54° Northeast  Level Estimated
Tue 08:07:00 AM 58.4664 19.3349 55° Northeast  Level Estimated
Tue 08:08:00 AM 58.5315 19.5117 55° Northeast  Level Estimated
Tue 08:09:00 AM 58.5964 19.6891 55° Northeast  Level Estimated
Tue 08:10:00 AM 58.6610 19.8673 55° Northeast  Level Estimated
Tue 08:11:00 AM 58.7254 20.0460 55° Northeast  Level Estimated
Tue 08:12:00 AM 58.7895 20.2254 55° Northeast  Level Estimated
Tue 08:13:00 AM 58.8534 20.4055 56° Northeast  Level Estimated
Tue 08:14:00 AM 58.9170 20.5863 56° Northeast  Level Estimated
Tue 08:15:00 AM 58.9804 20.7677 56° Northeast  Level Estimated
Tue 08:16:00 AM 59.0435 20.9497 56° Northeast  Level Estimated
Tue 08:17:00 AM 59.1064 21.1325 56° Northeast  Level Estimated
Tue 08:18:00 AM 59.1690 21.3159 56° Northeast  Level Estimated
Tue 08:19:00 AM 59.2305 21.4974 56° Northeast  Level Estimated
Tue 08:20:00 AM 59.2917 21.6796 57° Northeast  Level Estimated
Tue 08:21:00 AM 59.3527 21.8625 57° Northeast  Level Estimated
Tue 08:22:00 AM 59.4134 22.0459 57° Northeast  Level Estimated
Tue 08:23:00 AM 59.4739 22.2301 57° Northeast  Level Estimated
Tue 08:24:00 AM 59.5341 22.4149 57° Northeast  Level Estimated
Tue 08:25:00 AM 59.5940 22.6004 57° Northeast  Level Estimated
Tue 08:26:00 AM 59.6537 22.7865 58° Northeast  Level Estimated
Tue 08:27:00 AM 59.7131 22.9733 58° Northeast  Level Estimated
Tue 08:28:00 AM 59.7723 23.1607 58° Northeast  Level Estimated
Tue 08:29:00 AM 59.8311 23.3489 58° Northeast  Level Estimated
Tue 08:30:00 AM 59.8897 23.5376 58° Northeast  Level Estimated
Tue 08:31:00 AM 59.9481 23.7271 58° Northeast  Level Estimated
Tue 08:32:00 AM 60.0061 23.9172 59° Northeast  Level Estimated
Tue 08:33:00 AM 60.0639 24.1080 59° Northeast  Level Estimated
Tue 08:34:00 AM 60.1214 24.2994 59° Northeast  Level Estimated
Tue 08:35:00 AM 60.1839 24.5091 59° Northeast  Level Estimated
Tue 08:36:00 AM 60.2460 24.7195 59° Northeast  Level Estimated
Tue 08:37:00 AM 60.3077 24.9307 59° Northeast  Level Estimated
Tue 08:38:00 AM 60.3172 24.9633 60° Northeast  Level Estimated
Tue 08:39:00 AM 60.3172 24.9633 37° Northeast  Level Estimated
Tue 08:40:00 AM 60.3172 24.9633 37° Northeast  Level Estimated
Tue 08:41:00 AM 60.3172 24.9633 37° Northeast  Level Estimated

Login

Don't have an account? Register now (free) for customized features, flight alerts, and more!